sensor_id;sensor_type;location;lat;lon;timestamp;P1;durP1;ratioP1;P2;durP2;ratioP2
43823;SDS011;29470;53.550;9.926;2022-12-10T00:02:28;53.47;;;18.20;;
43823;SDS011;29470;53.550;9.926;2022-12-10T00:07:31;60.80;;;19.75;;
43823;SDS011;29470;53.550;9.926;2022-12-10T00:12:35;59.38;;;18.40;;
43823;SDS011;29470;53.550;9.926;2022-12-10T00:17:39;53.10;;;17.75;;
43823;SDS011;29470;53.550;9.926;2022-12-10T00:22:42;48.30;;;16.30;;
43823;SDS011;29470;53.550;9.926;2022-12-10T00:27:44;53.08;;;18.42;;
43823;SDS011;29470;53.550;9.926;2022-12-10T00:32:49;49.30;;;17.75;;
43823;SDS011;29470;53.550;9.926;2022-12-10T00:37:51;49.15;;;17.50;;
43823;SDS011;29470;53.550;9.926;2022-12-10T00:42:55;50.22;;;17.00;;
43823;SDS011;29470;53.550;9.926;2022-12-10T00:47:59;43.35;;;16.13;;
43823;SDS011;29470;53.550;9.926;2022-12-10T00:53:02;44.25;;;16.63;;
43823;SDS011;29470;53.550;9.926;2022-12-10T00:58:05;42.67;;;14.80;;
43823;SDS011;29470;53.550;9.926;2022-12-10T01:03:09;44.63;;;15.13;;
43823;SDS011;29470;53.550;9.926;2022-12-10T01:08:12;46.53;;;16.50;;
43823;SDS011;29470;53.550;9.926;2022-12-10T01:13:15;41.35;;;14.95;;
43823;SDS011;29470;53.550;9.926;2022-12-10T01:18:20;41.47;;;14.98;;
43823;SDS011;29470;53.550;9.926;2022-12-10T01:23:23;42.03;;;14.50;;
43823;SDS011;29470;53.550;9.926;2022-12-10T01:28:27;40.53;;;14.23;;
43823;SDS011;29470;53.550;9.926;2022-12-10T01:33:33;35.10;;;13.38;;
43823;SDS011;29470;53.550;9.926;2022-12-10T01:38:36;38.80;;;14.32;;
43823;SDS011;29470;53.550;9.926;2022-12-10T01:43:51;34.58;;;12.85;;
43823;SDS011;29470;53.550;9.926;2022-12-10T01:48:57;35.92;;;13.50;;
43823;SDS011;29470;53.550;9.926;2022-12-10T01:54:03;37.17;;;12.93;;
43823;SDS011;29470;53.550;9.926;2022-12-10T01:59:08;36.88;;;13.63;;
43823;SDS011;29470;53.550;9.926;2022-12-10T02:04:14;35.22;;;13.75;;
43823;SDS011;29470;53.550;9.926;2022-12-10T02:09:27;30.20;;;11.23;;
43823;SDS011;29470;53.550;9.926;2022-12-10T02:14:40;30.55;;;12.13;;
43823;SDS011;29470;53.550;9.926;2022-12-10T02:19:56;34.55;;;12.88;;
43823;SDS011;29470;53.550;9.926;2022-12-10T02:25:04;32.92;;;13.02;;
43823;SDS011;29470;53.550;9.926;2022-12-10T02:30:12;31.88;;;12.07;;
43823;SDS011;29470;53.550;9.926;2022-12-10T02:35:16;31.85;;;13.02;;
43823;SDS011;29470;53.550;9.926;2022-12-10T02:40:24;30.80;;;12.20;;
43823;SDS011;29470;53.550;9.926;2022-12-10T02:45:33;27.35;;;11.57;;
43823;SDS011;29470;53.550;9.926;2022-12-10T02:50:39;29.75;;;12.23;;
43823;SDS011;29470;53.550;9.926;2022-12-10T02:55:49;26.40;;;11.02;;
43823;SDS011;29470;53.550;9.926;2022-12-10T03:01:19;31.23;;;11.45;;
43823;SDS011;29470;53.550;9.926;2022-12-10T03:06:45;24.60;;;9.77;;
43823;SDS011;29470;53.550;9.926;2022-12-10T03:11:57;28.02;;;11.05;;
43823;SDS011;29470;53.550;9.926;2022-12-10T03:17:05;28.30;;;10.70;;
43823;SDS011;29470;53.550;9.926;2022-12-10T03:22:10;27.48;;;10.63;;
43823;SDS011;29470;53.550;9.926;2022-12-10T03:27:15;20.38;;;9.70;;
43823;SDS011;29470;53.550;9.926;2022-12-10T03:32:24;21.25;;;9.68;;
43823;SDS011;29470;53.550;9.926;2022-12-10T03:37:29;25.65;;;10.68;;
43823;SDS011;29470;53.550;9.926;2022-12-10T03:42:32;27.52;;;11.35;;
43823;SDS011;29470;53.550;9.926;2022-12-10T03:47:38;26.70;;;10.55;;
43823;SDS011;29470;53.550;9.926;2022-12-10T03:52:42;25.48;;;10.35;;
43823;SDS011;29470;53.550;9.926;2022-12-10T03:57:45;26.73;;;10.48;;
43823;SDS011;29470;53.550;9.926;2022-12-10T04:02:49;23.83;;;9.13;;
43823;SDS011;29470;53.550;9.926;2022-12-10T04:07:52;24.92;;;10.88;;
43823;SDS011;29470;53.550;9.926;2022-12-10T04:12:55;23.98;;;9.82;;
43823;SDS011;29470;53.550;9.926;2022-12-10T04:18:13;20.08;;;9.48;;
43823;SDS011;29470;53.550;9.926;2022-12-10T04:23:16;22.48;;;9.48;;
43823;SDS011;29470;53.550;9.926;2022-12-10T04:28:36;21.70;;;9.48;;
43823;SDS011;29470;53.550;9.926;2022-12-10T04:33:40;21.67;;;8.70;;
43823;SDS011;29470;53.550;9.926;2022-12-10T04:38:43;16.48;;;8.43;;
43823;SDS011;29470;53.550;9.926;2022-12-10T04:43:46;20.77;;;8.93;;
43823;SDS011;29470;53.550;9.926;2022-12-10T04:48:50;16.63;;;8.52;;
43823;SDS011;29470;53.550;9.926;2022-12-10T04:53:52;19.40;;;9.20;;
43823;SDS011;29470;53.550;9.926;2022-12-10T04:58:55;21.35;;;9.48;;
43823;SDS011;29470;53.550;9.926;2022-12-10T05:04:01;18.98;;;8.25;;
43823;SDS011;29470;53.550;9.926;2022-12-10T05:09:06;20.25;;;8.50;;
43823;SDS011;29470;53.550;9.926;2022-12-10T05:14:10;19.42;;;8.38;;
43823;SDS011;29470;53.550;9.926;2022-12-10T05:19:14;17.85;;;8.35;;
43823;SDS011;29470;53.550;9.926;2022-12-10T05:24:17;18.25;;;7.53;;
43823;SDS011;29470;53.550;9.926;2022-12-10T05:29:20;18.42;;;8.10;;
43823;SDS011;29470;53.550;9.926;2022-12-10T05:34:24;16.73;;;7.80;;
43823;SDS011;29470;53.550;9.926;2022-12-10T05:39:27;16.17;;;8.13;;
43823;SDS011;29470;53.550;9.926;2022-12-10T05:44:30;15.45;;;7.85;;
43823;SDS011;29470;53.550;9.926;2022-12-10T05:49:34;15.23;;;7.13;;
43823;SDS011;29470;53.550;9.926;2022-12-10T05:54:37;17.38;;;7.32;;
43823;SDS011;29470;53.550;9.926;2022-12-10T05:59:40;19.38;;;7.43;;
43823;SDS011;29470;53.550;9.926;2022-12-10T06:04:45;17.15;;;7.50;;
43823;SDS011;29470;53.550;9.926;2022-12-10T06:09:48;20.63;;;8.80;;
43823;SDS011;29470;53.550;9.926;2022-12-10T06:14:51;18.23;;;8.27;;
43823;SDS011;29470;53.550;9.926;2022-12-10T06:19:55;17.80;;;7.93;;
43823;SDS011;29470;53.550;9.926;2022-12-10T06:24:58;14.25;;;7.20;;
43823;SDS011;29470;53.550;9.926;2022-12-10T06:30:01;18.70;;;8.40;;
43823;SDS011;29470;53.550;9.926;2022-12-10T06:35:06;18.00;;;8.10;;
43823;SDS011;29470;53.550;9.926;2022-12-10T06:40:10;18.88;;;7.97;;
43823;SDS011;29470;53.550;9.926;2022-12-10T06:45:14;14.73;;;7.55;;
43823;SDS011;29470;53.550;9.926;2022-12-10T06:50:19;14.55;;;7.32;;
43823;SDS011;29470;53.550;9.926;2022-12-10T06:55:22;17.08;;;8.20;;
43823;SDS011;29470;53.550;9.926;2022-12-10T07:00:24;17.58;;;8.82;;
43823;SDS011;29470;53.550;9.926;2022-12-10T07:05:29;14.80;;;7.57;;
43823;SDS011;29470;53.550;9.926;2022-12-10T07:10:31;17.63;;;8.93;;
43823;SDS011;29470;53.550;9.926;2022-12-10T07:15:34;18.10;;;9.00;;
43823;SDS011;29470;53.550;9.926;2022-12-10T07:20:38;16.77;;;8.60;;
43823;SDS011;29470;53.550;9.926;2022-12-10T07:25:44;18.08;;;7.68;;
43823;SDS011;29470;53.550;9.926;2022-12-10T07:30:47;18.08;;;7.35;;
43823;SDS011;29470;53.550;9.926;2022-12-10T07:35:54;17.30;;;8.60;;
43823;SDS011;29470;53.550;9.926;2022-12-10T07:41:01;17.83;;;8.47;;
43823;SDS011;29470;53.550;9.926;2022-12-10T07:46:05;16.98;;;7.47;;
43823;SDS011;29470;53.550;9.926;2022-12-10T07:51:12;15.20;;;8.02;;
43823;SDS011;29470;53.550;9.926;2022-12-10T07:56:15;17.33;;;8.45;;
43823;SDS011;29470;53.550;9.926;2022-12-10T08:01:18;18.30;;;8.57;;
43823;SDS011;29470;53.550;9.926;2022-12-10T08:06:25;16.25;;;7.95;;
43823;SDS011;29470;53.550;9.926;2022-12-10T08:11:29;18.05;;;8.23;;
43823;SDS011;29470;53.550;9.926;2022-12-10T08:16:33;17.23;;;7.40;;
43823;SDS011;29470;53.550;9.926;2022-12-10T08:21:37;14.90;;;7.65;;
43823;SDS011;29470;53.550;9.926;2022-12-10T08:26:40;14.52;;;6.90;;
43823;SDS011;29470;53.550;9.926;2022-12-10T08:31:43;14.32;;;7.15;;
43823;SDS011;29470;53.550;9.926;2022-12-10T08:36:47;13.55;;;6.78;;
43823;SDS011;29470;53.550;9.926;2022-12-10T08:41:50;13.15;;;7.05;;
43823;SDS011;29470;53.550;9.926;2022-12-10T08:46:53;15.13;;;7.90;;
43823;SDS011;29470;53.550;9.926;2022-12-10T08:51:57;13.90;;;7.20;;
43823;SDS011;29470;53.550;9.926;2022-12-10T08:57:00;14.05;;;7.60;;
43823;SDS011;29470;53.550;9.926;2022-12-10T09:02:03;12.27;;;6.38;;
43823;SDS011;29470;53.550;9.926;2022-12-10T09:07:07;15.05;;;7.00;;
43823;SDS011;29470;53.550;9.926;2022-12-10T09:12:13;14.35;;;7.20;;
43823;SDS011;29470;53.550;9.926;2022-12-10T09:17:16;10.27;;;5.35;;
43823;SDS011;29470;53.550;9.926;2022-12-10T09:22:20;13.02;;;6.82;;
43823;SDS011;29470;53.550;9.926;2022-12-10T09:27:23;11.07;;;6.30;;
43823;SDS011;29470;53.550;9.926;2022-12-10T09:32:26;12.35;;;6.55;;
43823;SDS011;29470;53.550;9.926;2022-12-10T09:37:33;13.80;;;7.13;;
43823;SDS011;29470;53.550;9.926;2022-12-10T09:42:38;11.23;;;5.88;;
43823;SDS011;29470;53.550;9.926;2022-12-10T09:47:49;12.55;;;7.00;;
43823;SDS011;29470;53.550;9.926;2022-12-10T09:53:02;12.52;;;7.00;;
43823;SDS011;29470;53.550;9.926;2022-12-10T09:58:08;13.65;;;7.38;;
43823;SDS011;29470;53.550;9.926;2022-12-10T10:03:16;16.38;;;7.53;;
43823;SDS011;29470;53.550;9.926;2022-12-10T10:08:22;14.18;;;6.70;;
43823;SDS011;29470;53.550;9.926;2022-12-10T10:13:30;12.93;;;6.38;;
43823;SDS011;29470;53.550;9.926;2022-12-10T10:18:37;11.30;;;5.78;;
43823;SDS011;29470;53.550;9.926;2022-12-10T10:23:44;12.30;;;7.00;;
43823;SDS011;29470;53.550;9.926;2022-12-10T10:28:48;11.00;;;5.80;;
43823;SDS011;29470;53.550;9.926;2022-12-10T10:33:55;14.13;;;6.70;;
43823;SDS011;29470;53.550;9.926;2022-12-10T10:39:08;10.77;;;6.45;;
43823;SDS011;29470;53.550;9.926;2022-12-10T10:44:15;11.63;;;7.00;;
43823;SDS011;29470;53.550;9.926;2022-12-10T10:49:22;11.30;;;6.32;;
43823;SDS011;29470;53.550;9.926;2022-12-10T10:54:32;11.20;;;6.03;;
43823;SDS011;29470;53.550;9.926;2022-12-10T10:59:36;12.80;;;6.63;;
43823;SDS011;29470;53.550;9.926;2022-12-10T11:04:44;11.88;;;6.50;;
43823;SDS011;29470;53.550;9.926;2022-12-10T11:09:51;11.02;;;6.07;;
43823;SDS011;29470;53.550;9.926;2022-12-10T11:14:55;13.35;;;6.93;;
43823;SDS011;29470;53.550;9.926;2022-12-10T11:19:58;13.77;;;6.97;;
43823;SDS011;29470;53.550;9.926;2022-12-10T11:25:11;15.65;;;7.68;;
43823;SDS011;29470;53.550;9.926;2022-12-10T11:30:15;14.27;;;8.00;;
43823;SDS011;29470;53.550;9.926;2022-12-10T11:35:24;14.35;;;6.80;;
43823;SDS011;29470;53.550;9.926;2022-12-10T11:40:40;15.77;;;7.47;;
43823;SDS011;29470;53.550;9.926;2022-12-10T11:45:52;14.93;;;7.72;;
43823;SDS011;29470;53.550;9.926;2022-12-10T11:51:08;13.85;;;7.85;;
43823;SDS011;29470;53.550;9.926;2022-12-10T11:56:21;14.13;;;7.65;;
43823;SDS011;29470;53.550;9.926;2022-12-10T12:01:29;23.92;;;10.07;;
43823;SDS011;29470;53.550;9.926;2022-12-10T12:06:46;14.45;;;7.90;;
43823;SDS011;29470;53.550;9.926;2022-12-10T12:12:03;15.45;;;7.93;;
43823;SDS011;29470;53.550;9.926;2022-12-10T12:17:16;14.82;;;7.95;;
43823;SDS011;29470;53.550;9.926;2022-12-10T12:22:26;15.10;;;7.22;;
43823;SDS011;29470;53.550;9.926;2022-12-10T12:27:34;16.38;;;8.23;;
43823;SDS011;29470;53.550;9.926;2022-12-10T12:32:44;13.02;;;6.80;;
43823;SDS011;29470;53.550;9.926;2022-12-10T12:37:54;14.95;;;7.75;;
43823;SDS011;29470;53.550;9.926;2022-12-10T12:43:03;14.98;;;7.63;;
43823;SDS011;29470;53.550;9.926;2022-12-10T12:48:14;16.75;;;8.57;;
43823;SDS011;29470;53.550;9.926;2022-12-10T12:53:23;17.27;;;7.68;;
43823;SDS011;29470;53.550;9.926;2022-12-10T12:58:38;13.50;;;7.32;;
43823;SDS011;29470;53.550;9.926;2022-12-10T13:03:44;16.52;;;7.72;;
43823;SDS011;29470;53.550;9.926;2022-12-10T13:08:48;16.70;;;8.63;;
43823;SDS011;29470;53.550;9.926;2022-12-10T13:19:36;16.38;;;8.02;;
43823;SDS011;29470;53.550;9.926;2022-12-10T13:30:30;18.77;;;8.80;;
43823;SDS011;29470;53.550;9.926;2022-12-10T13:35:41;15.85;;;8.50;;
43823;SDS011;29470;53.550;9.926;2022-12-10T13:40:54;16.20;;;8.40;;
43823;SDS011;29470;53.550;9.926;2022-12-10T13:46:27;17.00;;;8.50;;
43823;SDS011;29470;53.550;9.926;2022-12-10T13:51:46;16.85;;;8.32;;
43823;SDS011;29470;53.550;9.926;2022-12-10T13:56:58;14.63;;;7.72;;
43823;SDS011;29470;53.550;9.926;2022-12-10T14:02:36;18.63;;;7.80;;
43823;SDS011;29470;53.550;9.926;2022-12-10T14:07:56;19.13;;;8.32;;
43823;SDS011;29470;53.550;9.926;2022-12-10T14:13:03;16.42;;;9.20;;
43823;SDS011;29470;53.550;9.926;2022-12-10T14:18:10;16.73;;;8.88;;
43823;SDS011;29470;53.550;9.926;2022-12-10T14:23:25;17.98;;;9.27;;
43823;SDS011;29470;53.550;9.926;2022-12-10T14:28:39;21.38;;;9.52;;
43823;SDS011;29470;53.550;9.926;2022-12-10T14:33:45;19.83;;;9.50;;
43823;SDS011;29470;53.550;9.926;2022-12-10T14:38:50;19.73;;;9.43;;
43823;SDS011;29470;53.550;9.926;2022-12-10T14:43:53;21.50;;;9.52;;
43823;SDS011;29470;53.550;9.926;2022-12-10T14:48:58;19.70;;;9.45;;
43823;SDS011;29470;53.550;9.926;2022-12-10T14:54:01;19.48;;;9.35;;
43823;SDS011;29470;53.550;9.926;2022-12-10T14:59:04;19.38;;;9.07;;
43823;SDS011;29470;53.550;9.926;2022-12-10T15:04:15;19.95;;;10.20;;
43823;SDS011;29470;53.550;9.926;2022-12-10T15:09:27;21.63;;;9.65;;
43823;SDS011;29470;53.550;9.926;2022-12-10T15:14:30;17.67;;;8.75;;
43823;SDS011;29470;53.550;9.926;2022-12-10T15:19:34;18.15;;;9.32;;
43823;SDS011;29470;53.550;9.926;2022-12-10T15:24:40;28.63;;;12.23;;
43823;SDS011;29470;53.550;9.926;2022-12-10T15:29:45;16.30;;;8.68;;
43823;SDS011;29470;53.550;9.926;2022-12-10T15:34:53;17.33;;;8.05;;
43823;SDS011;29470;53.550;9.926;2022-12-10T15:39:58;17.77;;;8.82;;
43823;SDS011;29470;53.550;9.926;2022-12-10T15:45:08;20.83;;;9.57;;
43823;SDS011;29470;53.550;9.926;2022-12-10T15:50:21;20.52;;;9.45;;
43823;SDS011;29470;53.550;9.926;2022-12-10T15:55:24;20.95;;;9.90;;
43823;SDS011;29470;53.550;9.926;2022-12-10T16:00:27;22.17;;;9.20;;
43823;SDS011;29470;53.550;9.926;2022-12-10T16:05:32;20.65;;;9.95;;
43823;SDS011;29470;53.550;9.926;2022-12-10T16:10:37;24.60;;;12.30;;
43823;SDS011;29470;53.550;9.926;2022-12-10T16:15:43;20.60;;;10.73;;
43823;SDS011;29470;53.550;9.926;2022-12-10T16:20:52;23.77;;;11.15;;
43823;SDS011;29470;53.550;9.926;2022-12-10T16:25:54;22.60;;;11.32;;
43823;SDS011;29470;53.550;9.926;2022-12-10T16:30:58;20.60;;;10.18;;
43823;SDS011;29470;53.550;9.926;2022-12-10T16:36:03;20.15;;;10.25;;
43823;SDS011;29470;53.550;9.926;2022-12-10T16:41:09;21.20;;;11.05;;
43823;SDS011;29470;53.550;9.926;2022-12-10T16:46:17;24.40;;;12.27;;
43823;SDS011;29470;53.550;9.926;2022-12-10T16:51:22;23.15;;;11.38;;
43823;SDS011;29470;53.550;9.926;2022-12-10T16:56:30;27.48;;;12.15;;
43823;SDS011;29470;53.550;9.926;2022-12-10T17:01:33;24.08;;;12.10;;
43823;SDS011;29470;53.550;9.926;2022-12-10T17:06:38;29.10;;;13.82;;
43823;SDS011;29470;53.550;9.926;2022-12-10T17:11:44;30.55;;;14.85;;
43823;SDS011;29470;53.550;9.926;2022-12-10T17:16:49;30.05;;;13.82;;
43823;SDS011;29470;53.550;9.926;2022-12-10T17:21:55;28.52;;;12.95;;
43823;SDS011;29470;53.550;9.926;2022-12-10T17:27:00;34.92;;;15.32;;
43823;SDS011;29470;53.550;9.926;2022-12-10T17:32:09;28.13;;;13.13;;
43823;SDS011;29470;53.550;9.926;2022-12-10T17:37:17;29.25;;;13.10;;
43823;SDS011;29470;53.550;9.926;2022-12-10T17:42:22;31.17;;;13.05;;
43823;SDS011;29470;53.550;9.926;2022-12-10T17:47:25;32.65;;;12.75;;
43823;SDS011;29470;53.550;9.926;2022-12-10T17:52:30;30.92;;;13.20;;
43823;SDS011;29470;53.550;9.926;2022-12-10T17:57:33;29.80;;;13.50;;
43823;SDS011;29470;53.550;9.926;2022-12-10T18:02:36;29.23;;;12.93;;
43823;SDS011;29470;53.550;9.926;2022-12-10T18:07:40;33.50;;;13.98;;
43823;SDS011;29470;53.550;9.926;2022-12-10T18:12:43;30.60;;;13.73;;
43823;SDS011;29470;53.550;9.926;2022-12-10T18:17:46;30.48;;;13.52;;
43823;SDS011;29470;53.550;9.926;2022-12-10T18:22:51;30.40;;;13.10;;
43823;SDS011;29470;53.550;9.926;2022-12-10T18:27:55;27.33;;;11.85;;
43823;SDS011;29470;53.550;9.926;2022-12-10T18:32:59;28.92;;;13.45;;
43823;SDS011;29470;53.550;9.926;2022-12-10T18:38:03;28.85;;;13.45;;
43823;SDS011;29470;53.550;9.926;2022-12-10T18:43:06;28.98;;;12.70;;
43823;SDS011;29470;53.550;9.926;2022-12-10T18:48:10;28.83;;;12.35;;
43823;SDS011;29470;53.550;9.926;2022-12-10T18:53:14;31.33;;;12.48;;
43823;SDS011;29470;53.550;9.926;2022-12-10T18:58:17;23.45;;;10.48;;
43823;SDS011;29470;53.550;9.926;2022-12-10T19:03:20;26.50;;;12.05;;
43823;SDS011;29470;53.550;9.926;2022-12-10T19:08:25;25.20;;;10.82;;
43823;SDS011;29470;53.550;9.926;2022-12-10T19:13:29;19.85;;;9.70;;
43823;SDS011;29470;53.550;9.926;2022-12-10T19:18:32;26.30;;;11.70;;
43823;SDS011;29470;53.550;9.926;2022-12-10T19:23:36;32.00;;;13.07;;
43823;SDS011;29470;53.550;9.926;2022-12-10T19:28:45;23.02;;;11.55;;
43823;SDS011;29470;53.550;9.926;2022-12-10T19:33:47;28.40;;;12.75;;
43823;SDS011;29470;53.550;9.926;2022-12-10T19:38:52;26.25;;;11.65;;
43823;SDS011;29470;53.550;9.926;2022-12-10T19:43:55;26.85;;;12.02;;
43823;SDS011;29470;53.550;9.926;2022-12-10T19:48:59;31.27;;;13.68;;
43823;SDS011;29470;53.550;9.926;2022-12-10T19:54:03;21.85;;;10.40;;
43823;SDS011;29470;53.550;9.926;2022-12-10T19:59:10;30.92;;;13.13;;
43823;SDS011;29470;53.550;9.926;2022-12-10T20:04:16;23.15;;;10.93;;
43823;SDS011;29470;53.550;9.926;2022-12-10T20:15:05;25.13;;;11.35;;
43823;SDS011;29470;53.550;9.926;2022-12-10T20:20:37;24.52;;;11.45;;
43823;SDS011;29470;53.550;9.926;2022-12-10T20:25:41;26.17;;;11.35;;
43823;SDS011;29470;53.550;9.926;2022-12-10T20:30:45;27.92;;;12.75;;
43823;SDS011;29470;53.550;9.926;2022-12-10T20:35:48;31.58;;;14.63;;
43823;SDS011;29470;53.550;9.926;2022-12-10T20:40:52;23.58;;;10.65;;
43823;SDS011;29470;53.550;9.926;2022-12-10T20:45:55;25.30;;;11.40;;
43823;SDS011;29470;53.550;9.926;2022-12-10T20:50:59;25.10;;;10.90;;
43823;SDS011;29470;53.550;9.926;2022-12-10T20:56:03;27.00;;;11.18;;
43823;SDS011;29470;53.550;9.926;2022-12-10T21:01:08;27.77;;;11.73;;
43823;SDS011;29470;53.550;9.926;2022-12-10T21:06:13;25.17;;;11.00;;
43823;SDS011;29470;53.550;9.926;2022-12-10T21:11:18;23.40;;;10.50;;
43823;SDS011;29470;53.550;9.926;2022-12-10T21:16:22;25.00;;;10.52;;
43823;SDS011;29470;53.550;9.926;2022-12-10T21:21:26;22.85;;;10.13;;
43823;SDS011;29470;53.550;9.926;2022-12-10T21:26:30;27.05;;;11.80;;
43823;SDS011;29470;53.550;9.926;2022-12-10T21:31:37;24.15;;;9.93;;
43823;SDS011;29470;53.550;9.926;2022-12-10T21:36:40;22.38;;;10.32;;
43823;SDS011;29470;53.550;9.926;2022-12-10T21:41:44;22.60;;;9.85;;
43823;SDS011;29470;53.550;9.926;2022-12-10T21:47:04;25.88;;;10.57;;
43823;SDS011;29470;53.550;9.926;2022-12-10T21:52:07;21.35;;;10.50;;
43823;SDS011;29470;53.550;9.926;2022-12-10T21:57:11;21.33;;;10.55;;
43823;SDS011;29470;53.550;9.926;2022-12-10T22:02:14;22.83;;;10.80;;
43823;SDS011;29470;53.550;9.926;2022-12-10T22:07:17;27.98;;;12.07;;
43823;SDS011;29470;53.550;9.926;2022-12-10T22:12:21;23.80;;;10.65;;
43823;SDS011;29470;53.550;9.926;2022-12-10T22:17:24;25.63;;;10.52;;
43823;SDS011;29470;53.550;9.926;2022-12-10T22:22:27;24.67;;;10.07;;
43823;SDS011;29470;53.550;9.926;2022-12-10T22:27:32;23.52;;;10.38;;
43823;SDS011;29470;53.550;9.926;2022-12-10T22:32:36;20.60;;;9.32;;
43823;SDS011;29470;53.550;9.926;2022-12-10T22:37:39;24.10;;;10.75;;
43823;SDS011;29470;53.550;9.926;2022-12-10T22:42:43;26.02;;;10.63;;
43823;SDS011;29470;53.550;9.926;2022-12-10T22:47:50;27.80;;;10.85;;
43823;SDS011;29470;53.550;9.926;2022-12-10T22:52:53;23.92;;;10.27;;
43823;SDS011;29470;53.550;9.926;2022-12-10T22:57:57;22.63;;;11.00;;
43823;SDS011;29470;53.550;9.926;2022-12-10T23:03:00;26.20;;;10.18;;
43823;SDS011;29470;53.550;9.926;2022-12-10T23:08:03;26.92;;;10.55;;
43823;SDS011;29470;53.550;9.926;2022-12-10T23:13:09;25.75;;;10.45;;
43823;SDS011;29470;53.550;9.926;2022-12-10T23:18:14;21.23;;;9.85;;
43823;SDS011;29470;53.550;9.926;2022-12-10T23:23:17;24.23;;;9.95;;
43823;SDS011;29470;53.550;9.926;2022-12-10T23:28:21;25.15;;;10.43;;
43823;SDS011;29470;53.550;9.926;2022-12-10T23:33:24;20.95;;;9.27;;
43823;SDS011;29470;53.550;9.926;2022-12-10T23:38:27;19.85;;;8.82;;
43823;SDS011;29470;53.550;9.926;2022-12-10T23:43:31;19.83;;;9.15;;
43823;SDS011;29470;53.550;9.926;2022-12-10T23:48:35;21.95;;;9.25;;
43823;SDS011;29470;53.550;9.926;2022-12-10T23:53:37;18.73;;;8.23;;
43823;SDS011;29470;53.550;9.926;2022-12-10T23:58:42;20.90;;;7.53;;
